Parker City, IN (47368)

3:11 AM EDT on October 25, 2014 (GMT -0400)
Clyde Weems Memorial Observation Station | Change Station
CLOSE
Current Station
Personal Weather Station
Location: Mount Pleasant, IN
Elevation: 1020 ft
Nearby Weather Stations

Elev 1020 ft 40.09 °N, 85.31 °W | Updated 2 seconds ago

Partly Cloudy
Partly Cloudy
51.4 °F
Feels Like 51.4 °F
N
2.0
Wind Variable Wind from South
Gusts 5.0 mph

Today
High -- | Low -- °F
--% Chance of Precip.
Yesterday
High -- | Low -- °F
Precip. -- in
8:02 AM 6:46 PM
New Moon, 2% visible
Pressure 29.98 in
Visibility 8.0 miles
Clouds Overcast 9500 ft
Dew Point 49 °F
Humidity 91%
Rainfall 0.00 in
Snow Depth Not available.
UV 0.0 out of 12
Pollen 1.20 out of 12
Air Quality Not available.
Flu Activity Sporadic
METAR KMIE 250653Z AUTO 23005KT 8SM OVC095 12/09 A2999 RMK AO2 SLP150 T01220094

More Conditions Fewer Conditions

Pressure 29.98 in
Visibility 8.0 miles
Clouds Overcast 9500 ft
Dew Point 49 °F
Humidity 91%
Rainfall 0.00 in
Snow Depth Not available.
UV 0.0 out of 12
Pollen 1.20 out of 12
Air Quality Not available.
Flu Activity Sporadic
METAR KMIE 250653Z AUTO 23005KT 8SM OVC095 12/09 A2999 RMK AO2 SLP150 T01220094

More Conditions Fewer Conditions

10-Day Weather Forecast

Almanac

Astronomy

Oct. 25, 2014 Rise Set
Actual Time 8:02 AM EDT 6:46 PM EDT
Civil Twilight 7:34 AM EDT 7:14 PM EDT
Nautical Twilight 7:02 AM EDT 7:46 PM EDT
Astronomical Twilight 6:31 AM EDT 8:17 PM EDT
Moon 9:40 AM EDT 8:09 PM EDT
Length of Visible Light 11h 40m
Length of Day
10h 44m
Tomorrow will be 2m 27s shorter.
New Moon, 2% of the Moon is Illuminated
Today
New Moon
Oct 30
First Quarter
Nov 6
Full
Nov 14
Last Quarter
Nov 22
New

Today's Extremes

State Highs State Lows

Community

WunderPhotos

Upload Photos

1,764,789 photos uploaded!

Nearby

Snow Depth

Station Depth Elevation
No new snow has been reported.

Earthquake Activity

City Distance Mag. Time & Date
No recent earthquake activity has been reported nearby.
Minimum magnitude displayed is 2.5.

Coastal Water Temperatures

Place Temperature
No Stations Reporting

Nearby Weather Stations